• Join FlightAware (Why Join?)
  • Login
  • US Flag 
09:00PM EDT


 

Airport Tracker/Info


-or-


 

Live Flight TrackerFlight Track Log ✈ SWA830 ✈ 12-Oct-2013 ✈ KATL - KDEN

Flight Track Log - Related Links

Times and Time Zones

All times are in EDT time to prevent confusion due to time zone crossing. See the SWA830 flight status page for this flight to view local times or setup timezone preferences in your user account.

Time Position Orientation Groundspeed Altitude Reporting Facility
EDT Latitude Longitude Course Direction KTS MPH feet Rate Location/Type
01:06PM 33.6500 -84.5000 284° West 201 231 3,100  Level Atlanta TRACON
01:07PM 33.6667 -84.5833 284° West 266 306 5,600 3,000 Climbing Atlanta TRACON
01:08PM 33.6942 -84.7278 283° West 297 342 10,800 3,000 Climbing Atlanta Center
01:09PM 33.6894 -84.8453 267° West 333 383 13,400 2,880 Climbing Atlanta Center
01:10PM 33.6781 -84.9700 264° West 370 426 16,600 3,060 Climbing Atlanta Center
01:11PM 33.6644 -85.0969 263° West 394 453 19,600 2,520 Climbing Atlanta Center
01:12PM 33.6531 -85.2117 263° West 394 453 21,700 2,100 Climbing Atlanta Center
01:13PM 33.6517 -85.3489 269° West 399 459 23,800 2,160 Climbing Atlanta Center
01:14PM 33.6542 -85.4864 271° West 412 474 26,100 2,220 Climbing Atlanta Center
01:15PM 33.6589 -85.6286 272° West 424 488 28,300 2,160 Climbing Atlanta Center
01:16PM 33.6611 -85.7733 271° West 424 488 30,500 2,160 Climbing Atlanta Center
01:17PM 33.6592 -85.9056 269° West 414 476 32,700 2,280 Climbing Atlanta Center
01:18PM 33.6611 -86.0356 271° West 403 464 35,100 1,860 Climbing Atlanta Center
01:19PM 33.6611 -86.1653 270° West 398 458 36,500 1,320 Climbing Atlanta Center
01:20PM 33.6631 -86.2975 271° West 398 458 37,800 1,500 Climbing Atlanta Center
01:21PM 33.6647 -86.4225 271° West 398 458 39,500 1,080 Climbing Atlanta Center
01:22PM 33.6644 -86.5497 270° West 386 444 40,000 240 Climbing Atlanta Center
01:23PM 33.6658 -86.6769 271° West 386 444 40,000  Level Atlanta Center
01:24PM 33.6672 -86.8019 271° West 386 444 40,000  Level Atlanta Center
01:25PM 33.6622 -86.9314 267° West 386 444 40,000  Level Atlanta Center
01:26PM 33.6508 -87.0608 264° West 386 444 40,000  Level Atlanta Center
01:28PM 33.6236 -87.2939 262° West 392 451 40,000  Level Memphis Center
01:29PM 33.6119 -87.4189 264° West 387 445 40,000  Level Memphis Center
01:30PM 33.5981 -87.5442 262° West 387 445 40,000  Level Memphis Center
01:31PM 33.5864 -87.6717 264° West 387 445 40,000  Level Memphis Center
01:32PM 33.5706 -87.8092 262° West 387 445 40,000  Level Memphis Center
01:33PM 33.5561 -87.9317 262° West 387 445 40,000  Level Memphis Center
01:34PM 33.5439 -88.0542 263° West 387 445 40,000  Level Memphis Center
01:35PM 33.5294 -88.1792 262° West 387 445 40,000  Level Memphis Center
01:36PM 33.5211 -88.3014 265° West 382 440 40,000  Level Memphis Center
01:37PM 33.5064 -88.4239 262° West 377 434 40,000  Level Memphis Center
01:38PM 33.4936 -88.5439 263° West 371 427 40,000  Level Memphis Center
01:39PM 33.4786 -88.6661 262° West 371 427 40,000  Level Memphis Center
01:40PM 33.4636 -88.7833 261° West 371 427 40,000  Level Memphis Center
01:41PM 33.4503 -88.9033 262° West 371 427 40,000  Level Memphis Center
01:42PM 33.4372 -89.0253 263° West 371 427 40,000  Level Memphis Center
01:43PM 33.4194 -89.1428 260° West 371 427 40,000  Level Memphis Center
01:44PM 33.4081 -89.2647 264° West 371 427 40,000  Level Memphis Center
01:45PM 33.3944 -89.3844 262° West 371 427 40,000  Level Memphis Center
01:46PM 33.4350 -89.4933 294° West 358 412 40,000  Level Memphis Center
01:47PM 33.4836 -89.5900 301° West 353 406 40,000  Level Memphis Center
01:48PM 33.5322 -89.6944 299° West 358 412 40,000  Level Memphis Center
01:49PM 33.5808 -89.8011 299° West 363 418 40,000  Level Memphis Center
01:50PM 33.6292 -89.9056 299° West 363 418 40,000  Level Memphis Center
01:51PM 33.6797 -90.0103 300° West 363 418 40,000  Level Memphis Center
01:52PM 33.7278 -90.1175 298° West 368 423 40,000  Level Memphis Center
01:53PM 33.7739 -90.2197 299° West 368 423 40,000  Level Memphis Center
01:54PM 33.8283 -90.3372 299° West 368 423 40,000  Level Memphis Center
01:55PM 33.8700 -90.4322 298° West 363 418 40,000  Level Memphis Center
01:56PM 33.9158 -90.5400 297° West 363 418 40,000  Level Memphis Center
01:57PM 33.9658 -90.6428 300° West 358 412 40,000  Level Memphis Center
01:58PM 34.0114 -90.7456 298° West 353 406 40,000  Level Memphis Center
01:59PM 34.0633 -90.8586 299° West 346 398 40,000  Level Memphis Center
02:00PM 34.1108 -90.9642 299° West 352 405 40,000  Level Memphis Center
02:01PM 34.1603 -91.0700 299° West 347 399 40,000  Level Memphis Center
02:02PM 34.2075 -91.1758 298° West 352 405 40,000  Level Memphis Center
02:03PM 34.2550 -91.2844 298° West 352 405 40,000  Level Memphis Center
02:04PM 34.3061 -91.3931 300° West 365 420 40,000  Level Memphis Center
02:05PM 34.3533 -91.4994 298° West 370 426 40,000  Level Memphis Center
02:06PM 34.4022 -91.6083 299° West 370 426 40,000  Level Memphis Center
02:07PM 34.4472 -91.7097 298° West 370 426 40,000  Level Memphis Center
02:08PM 34.4919 -91.8161 297° West 370 426 40,000  Level Memphis Center
02:09PM 34.5406 -91.9228 299° West 370 426 40,000  Level Memphis Center
02:10PM 34.5894 -92.0322 299° West 370 426 40,000  Level Memphis Center
02:11PM 34.6336 -92.1417 296° West 370 426 40,000  Level Memphis Center
02:12PM 34.6800 -92.2511 297° West 370 426 40,000  Level Memphis Center
02:13PM 34.7306 -92.3586 300° West 370 426 40,000  Level Memphis Center
02:14PM 34.7789 -92.4683 298° West 370 426 40,000  Level Memphis Center
02:15PM 34.8269 -92.5808 298° West 375 432 40,000  Level Memphis Center
02:16PM 34.8731 -92.6908 297° West 375 432 40,000  Level Memphis Center
02:17PM 34.9189 -92.8011 297° West 370 426 40,000  Level Memphis Center
02:18PM 34.9647 -92.9114 297° West 370 426 40,000  Level Memphis Center
02:19PM 35.0103 -93.0217 297° West 370 426 40,000  Level Memphis Center
02:20PM 35.0639 -93.1428 298° West 370 426 40,000  Level Memphis Center
02:21PM 35.1114 -93.2558 297° West 370 426 40,000  Level Memphis Center
02:22PM 35.1567 -93.3717 296° West 376 433 40,000  Level Memphis Center
02:23PM 35.2061 -93.4828 299° West 371 427 40,000  Level Memphis Center
02:24PM 35.2533 -93.5964 297° West 371 427 40,000  Level Memphis Center
02:25PM 35.3003 -93.7075 297° West 371 427 40,000  Level Memphis Center
02:26PM 35.3472 -93.8217 297° West 371 427 40,000  Level Memphis Center
02:27PM 35.3942 -93.9356 297° West 371 427 40,000  Level Memphis Center
02:28PM 35.4408 -94.0472 297° West 371 427 40,000  Level Memphis Center
02:29PM 35.4878 -94.1589 297° West 371 427 40,000  Level Memphis Center
02:30PM 35.5319 -94.2731 295° West 371 427 40,000  Level Memphis Center
02:31PM 35.5806 -94.3850 298° West 371 427 40,000  Level Memphis Center
02:32PM 35.6247 -94.4997 295° West 371 427 40,000  Level Memphis Center
02:33PM 35.6711 -94.6119 297° West 371 427 40,000  Level Memphis Center
02:35PM 35.7708 -94.8603 296° West 373 429 40,000  Level Kansas City Center
02:36PM 35.8167 -94.9733 297° West 370 426 40,000  Level Kansas City Center
02:37PM 35.8622 -95.0897 296° West 374 430 40,000  Level Kansas City Center
02:38PM 35.9092 -95.2025 297° West 371 427 40,000  Level Kansas City Center
02:40PM 35.9547 -95.3200 296° West 375 432 40,000  Level Kansas City Center
02:41PM 36.0014 -95.4381 296° West 378 435 40,000  Level Kansas City Center
02:42PM 36.0483 -95.5575 296° West 382 440 40,000  Level Kansas City Center
02:43PM 36.0958 -95.6750 297° West 380 437 40,000  Level Kansas City Center
02:44PM 36.1461 -95.8072 295° West 379 436 40,000  Level Kansas City Center
02:45PM 36.1981 -95.9383 296° West 381 438 40,000  Level Kansas City Center
02:46PM 36.2447 -96.0569 296° West 380 437 40,000  Level Kansas City Center
02:47PM 36.2906 -96.1756 296° West 380 437 40,000  Level Kansas City Center
02:48PM 36.3356 -96.2928 296° West 376 433 40,000  Level Kansas City Center
02:49PM 36.3806 -96.4097 296° West 375 432 40,000  Level Kansas City Center
02:50PM 36.4258 -96.5269 296° West 374 430 40,000  Level Kansas City Center
02:51PM 36.4706 -96.6450 295° West 377 434 40,000  Level Kansas City Center
02:52PM 36.5206 -96.7758 295° West 376 433 40,000  Level Kansas City Center
02:53PM 36.5647 -96.8925 295° West 376 433 40,000  Level Kansas City Center
02:54PM 36.6133 -97.0222 295° West 377 434 40,000  Level Kansas City Center
02:55PM 36.6514 -97.1253 295° West 371 427 40,000  Level Kansas City Center
02:56PM 36.6950 -97.2408 295° West 369 425 40,000  Level Kansas City Center
02:57PM 36.7469 -97.3819 295° West 374 430 40,000  Level Kansas City Center
02:58PM 36.7836 -97.4817 295° West 372 428 40,000  Level Kansas City Center
02:59PM 36.8339 -97.6239 294° West 373 429 40,000  Level Kansas City Center
03:00PM 36.8769 -97.7436 294° West 375 432 40,000  Level Kansas City Center
03:01PM 36.9183 -97.8558 295° West 365 420 40,000  Level Kansas City Center
03:02PM 36.9617 -97.9736 295° West 368 423 40,000  Level Kansas City Center
03:03PM 37.0056 -98.0933 295° West 371 427 40,000  Level Kansas City Center
03:04PM 37.0469 -98.2156 293° West 378 435 40,000  Level Kansas City Center
03:05PM 37.0897 -98.3361 294° West 381 438 40,000  Level Kansas City Center
03:06PM 37.1331 -98.4544 295° West 379 436 40,000  Level Kansas City Center
03:07PM 37.1847 -98.5983 294° West 377 434 40,000  Level Kansas City Center
03:08PM 37.2278 -98.7192 294° West 377 434 40,000  Level Kansas City Center
03:09PM 37.2703 -98.8389 294° West 376 433 40,000  Level Kansas City Center
03:10PM 37.3128 -98.9611 294° West 377 434 40,000  Level Kansas City Center
03:11PM 37.3564 -99.0819 294° West 379 436 40,000  Level Kansas City Center
03:13PM 37.3967 -99.2028 293° West 377 434 40,000  Level Kansas City Center
03:14PM 37.4378 -99.3247 293° West 377 434 40,000  Level Kansas City Center
03:15PM 37.4939 -99.4744 295° West 384 442 40,000  Level Kansas City Center
03:16PM 37.5353 -99.5919 294° West 382 440 40,000  Level Kansas City Center
03:17PM 37.5758 -99.7092 294° West 383 441 40,000  Level Kansas City Center
03:18PM 37.6211 -99.8489 292° West 385 443 40,000  Level Kansas City Center
03:19PM 37.6631 -99.9672 294° West 387 445 40,000  Level Kansas City Center
03:20PM 37.7106 -100.1053 294° West 385 443 40,000  Level Kansas City Center
03:21PM 37.7514 -100.2247 293° West 387 445 40,000  Level Kansas City Center
03:22PM 37.7983 -100.3639 293° West 387 445 40,000  Level Kansas City Center
03:23PM 37.8397 -100.4856 293° West 392 451 40,000  Level Kansas City Center
03:24PM 37.8858 -100.6269 292° West 392 451 40,000  Level Kansas City Center
03:25PM 37.9275 -100.7478 294° West 398 458 40,000  Level Kansas City Center
03:26PM 37.9808 -100.8867 296° West 394 453 40,000  Level Kansas City Center
03:27PM 38.0272 -101.0072 296° West 398 458 40,000  Level Kansas City Center
03:28PM 38.0819 -101.1511 296° West 405 466 40,000  Level Kansas City Center
03:29PM 38.1275 -101.2753 295° West 405 466 40,000  Level Kansas City Center
03:30PM 38.1597 -101.3539 298° West 403 464 40,000 -240 Level Denver Center
03:31PM 38.2178 -101.4939 298° West 403 464 39,600 -660 Descending Denver Center
03:32PM 38.2781 -101.6125 303° West 415 478 38,700 -1,020 Descending Denver Center
03:33PM 38.3475 -101.7533 302° West 420 483 37,600 -840 Descending Denver Center
03:34PM 38.4083 -101.8731 303° West 421 484 37,000 -720 Descending Denver Center
03:35PM 38.4767 -102.0128 302° West 418 481 36,200 -840 Descending Denver Center
03:36PM 38.5364 -102.1347 302° West 422 486 35,400 -900 Descending Denver Center
03:37PM 38.5961 -102.2564 302° West 422 486 34,400 -720 Descending Denver Center
03:38PM 38.6667 -102.4003 302° West 427 491 34,000 -240 Descending Denver Center
03:39PM 38.7244 -102.5219 301° West 421 484 34,000  Level Denver Center
03:40PM 38.7939 -102.6664 302° West 425 489 34,000  Level Denver Center
03:41PM 38.8542 -102.7908 302° West 423 487 34,000  Level Denver Center
03:42PM 38.9156 -102.9183 302° West 422 486 34,000  Level Denver Center
03:43PM 38.9772 -103.0478 302° West 425 489 34,000 -1,320 Level Denver Center
03:44PM 39.0397 -103.1792 302° West 430 495 31,300 -2,580 Descending Denver Center
03:45PM 39.1011 -103.3081 302° West 426 490 28,800 -2,640 Descending Denver Center
03:46PM 39.1708 -103.4533 302° West 399 459 25,900 -2,580 Descending Denver Center
03:47PM 39.2250 -103.5692 301° West 382 440 23,600 -2,220 Descending Denver Center
03:48PM 39.2761 -103.6783 301° West 362 417 21,400 -2,040 Descending Denver Center
03:50PM 39.3500 -103.8500 299° West 330 380 18,300 -1,560 Descending Denver TRACON
03:51PM 39.4000 -103.9500 303° West 320 368 17,400 -1,200 Descending Denver TRACON
03:51PM 39.4006 -104.0025 271° West 307 353 16,500 -1,680 Descending Denver Center
03:52PM 39.4042 -104.1069 273° West 292 336 14,900 -1,560 Descending Denver Center
03:53PM 39.4081 -104.2097 273° West 287 330 13,400 -1,200 Descending Denver Center
03:54PM 39.4131 -104.3103 274° West 262 302 12,500 -840 Descending Denver Center
03:55PM 39.4161 -104.3939 273° West 235 270 11,800 -1,020 Descending Denver Center
03:56PM 39.4275 -104.4772 280° West 230 265 10,500 -1,320 Descending Denver Center
03:57PM 39.4556 -104.5533 296° West 251 289 9,200 -780 Descending Denver Center
03:58PM 39.5219 -104.5889 338° Northwest 259 298 9,000 -120 Descending Denver Center
03:59PM 39.5853 -104.6228 338° Northwest 253 291 9,000 -60 Level Denver Center
04:00PM 39.6567 -104.6603 338° Northwest 233 268 8,900 -720 Descending Denver Center
04:01PM 39.7181 -104.6617 359° North 222 255 7,600 -1,200 Descending Denver Center
04:02PM 39.7778 -104.6608 North 216 249 6,500 -1,020 Descending Denver Center
04:04PM 39.8233 -104.6611 360° North 168 193 5,600 -900 Descending Denver Center
04:05PM 39.8500 -104.6667 North  Level FlightAware Approximate
04:12PM 39.8617 -104.6732 North  Level Estimated
04:13PM 39.8617 -104.6732 North  Level Estimated
04:14PM 39.8617 -104.6732 North  Level Estimated